ETD16 KPIT-OMAA
Flight info
| Callsign | ETD16 |
|---|---|
| Flight time | N/A |
| Altitude | 31000 |
| Route | EWC DCT ZORBO DCT SYR DCT CABCI DCT MIILS/N0490F330 N441B ELSIR/M083F340 DCT 50N050W 52N040W 54N030W 55N020W DCT RESNO DCT NETKI/N0475F350 DCT CON DCT MORAG DCT NUCHU DCT BOGNA UL612 XAMAB DCT VEULE DCT INPAX DCT RESMI DCT ODEBU DCT OGULO DCT OKASI DCT OKEKO DCT MOU DCT MADIV DCT MOKIP DCT TUFTA DCT KOGAS/N0473F370 DCT MEDAM DCT NITAM DCT MOGBO DCT BELIX DCT SALUN N705 MMA P751 DASUM Y234 FYM M872 BOPOB/N0478F390 M872 BDB Y214 RAPMA DCT KUVSO DCT KATIT DCT DANUX DCT TANSU/N0502F330 G783 VAVIM P899 ROVOS |
| Aircraft | A346/H-SDE2E3FGHIJ3J4J5M1RWXY/LB1D1 |
Departure
| Time | N/A |
|---|---|
| Airport | Pittsburgh International Airport (KPIT) |
Arrival
| Time | 2026-05-04 17:20 |
|---|---|
| Airport | Zayed International Airport (OMAA) |
| Time | Latitude | Longitude | Altitude | Speed | Heading |
|---|---|---|---|---|---|
| 2026-05-04 14:34 | 27.72247 | 34.53240 | 35925 ft | 539 kts | 122° |
| 2026-05-04 14:34 | 27.70611 | 34.57073 | 35921 ft | 539 kts | 122° |
| 2026-05-04 14:35 | 27.67346 | 34.64714 | 35911 ft | 539 kts | 122° |
| 2026-05-04 14:35 | 27.64076 | 34.72354 | 35908 ft | 538 kts | 122° |
| 2026-05-04 14:36 | 27.60793 | 34.80006 | 35904 ft | 538 kts | 122° |
| 2026-05-04 14:36 | 27.57518 | 34.87629 | 35906 ft | 538 kts | 122° |
| 2026-05-04 14:37 | 27.54231 | 34.95261 | 36042 ft | 543 kts | 122° |
| 2026-05-04 14:37 | 27.52602 | 34.99042 | 36417 ft | 542 kts | 122° |
| 2026-05-04 14:37 | 27.50950 | 35.02878 | 36803 ft | 540 kts | 123° |
| 2026-05-04 14:37 | 27.49306 | 35.06690 | 36911 ft | 540 kts | 123° |
| 2026-05-04 14:38 | 27.47642 | 35.10538 | 36908 ft | 540 kts | 123° |
| 2026-05-04 14:38 | 27.44344 | 35.18151 | 36913 ft | 540 kts | 123° |
| 2026-05-04 14:39 | 27.41017 | 35.25818 | 36914 ft | 540 kts | 123° |
| 2026-05-04 14:39 | 27.37705 | 35.33437 | 36914 ft | 539 kts | 123° |
| 2026-05-04 14:40 | 27.32707 | 35.44914 | 36918 ft | 539 kts | 123° |
| 2026-05-04 14:40 | 27.29384 | 35.52524 | 36925 ft | 539 kts | 123° |
| 2026-05-04 14:41 | 27.26086 | 35.60065 | 36923 ft | 539 kts | 123° |
| 2026-05-04 14:42 | 27.19428 | 35.75247 | 36925 ft | 539 kts | 123° |
| 2026-05-04 14:42 | 27.16088 | 35.82844 | 36926 ft | 539 kts | 123° |
| 2026-05-04 14:43 | 27.12749 | 35.90422 | 36927 ft | 539 kts | 123° |
| 2026-05-04 14:43 | 27.09415 | 35.97977 | 36924 ft | 539 kts | 124° |
| 2026-05-04 14:44 | 27.06076 | 36.05528 | 36925 ft | 539 kts | 124° |
| 2026-05-04 14:44 | 27.02712 | 36.13121 | 36941 ft | 539 kts | 124° |
| 2026-05-04 14:45 | 26.99386 | 36.20618 | 36921 ft | 539 kts | 124° |
| 2026-05-04 14:45 | 26.96039 | 36.28146 | 36922 ft | 539 kts | 124° |
| 2026-05-04 14:46 | 26.92685 | 36.35677 | 36919 ft | 539 kts | 124° |
| 2026-05-04 14:46 | 26.89327 | 36.43205 | 36919 ft | 539 kts | 124° |
| 2026-05-04 14:47 | 26.85959 | 36.50741 | 36918 ft | 538 kts | 124° |
| 2026-05-04 14:47 | 26.82619 | 36.58202 | 36917 ft | 538 kts | 124° |
| 2026-05-04 14:48 | 26.79255 | 36.65701 | 36922 ft | 538 kts | 124° |
| 2026-05-04 14:48 | 26.75878 | 36.73216 | 36922 ft | 538 kts | 124° |
| 2026-05-04 14:49 | 26.72509 | 36.80702 | 36926 ft | 538 kts | 124° |
| 2026-05-04 14:49 | 26.69108 | 36.88244 | 36930 ft | 537 kts | 124° |
| 2026-05-04 14:50 | 26.65740 | 36.95701 | 36933 ft | 537 kts | 124° |
| 2026-05-04 14:50 | 26.62331 | 37.03238 | 36934 ft | 535 kts | 124° |
| 2026-05-04 14:51 | 26.58948 | 37.10701 | 36938 ft | 535 kts | 124° |
| 2026-05-04 14:51 | 26.55549 | 37.18185 | 36940 ft | 533 kts | 124° |
| 2026-05-04 14:52 | 26.52176 | 37.25601 | 36939 ft | 532 kts | 124° |
| 2026-05-04 14:52 | 26.48771 | 37.33074 | 36938 ft | 532 kts | 124° |
| 2026-05-04 14:53 | 26.45397 | 37.40468 | 36944 ft | 532 kts | 124° |
| 2026-05-04 14:53 | 26.42030 | 37.47835 | 36941 ft | 531 kts | 124° |
| 2026-05-04 14:54 | 26.38648 | 37.55217 | 36936 ft | 531 kts | 124° |
| 2026-05-04 14:54 | 26.35255 | 37.62610 | 36928 ft | 531 kts | 124° |
| 2026-05-04 14:55 | 26.31870 | 37.69976 | 36924 ft | 531 kts | 124° |
| 2026-05-04 14:55 | 26.28496 | 37.77309 | 36919 ft | 530 kts | 124° |
| 2026-05-04 14:56 | 26.25111 | 37.84655 | 36916 ft | 530 kts | 124° |
| 2026-05-04 14:56 | 26.21676 | 37.92089 | 36912 ft | 530 kts | 124° |
| 2026-05-04 14:57 | 26.18275 | 37.99439 | 36907 ft | 530 kts | 124° |
| 2026-05-04 14:57 | 26.14879 | 38.06767 | 36901 ft | 531 kts | 124° |
| 2026-05-04 14:58 | 26.11451 | 38.14151 | 36898 ft | 531 kts | 125° |
| 2026-05-04 14:58 | 26.08040 | 38.21486 | 36895 ft | 532 kts | 125° |
| 2026-05-04 14:59 | 26.04629 | 38.28807 | 36892 ft | 532 kts | 125° |
| 2026-05-04 15:00 | 25.99467 | 38.39868 | 36901 ft | 532 kts | 125° |
| 2026-05-04 15:00 | 25.96029 | 38.47219 | 36896 ft | 532 kts | 125° |
| 2026-05-04 15:01 | 25.90874 | 38.58214 | 36904 ft | 533 kts | 125° |
| 2026-05-04 15:01 | 25.87414 | 38.65579 | 36906 ft | 533 kts | 125° |
| 2026-05-04 15:02 | 25.83964 | 38.72918 | 36903 ft | 533 kts | 125° |
| 2026-05-04 15:02 | 25.80501 | 38.80271 | 36902 ft | 534 kts | 125° |
| 2026-05-04 15:03 | 25.77040 | 38.87605 | 36900 ft | 534 kts | 125° |
| 2026-05-04 15:03 | 25.73580 | 38.94925 | 36917 ft | 535 kts | 125° |
| 2026-05-04 15:04 | 25.70118 | 39.02234 | 36911 ft | 535 kts | 125° |
| 2026-05-04 15:04 | 25.66654 | 39.09537 | 36913 ft | 535 kts | 125° |
| 2026-05-04 15:05 | 25.63183 | 39.16843 | 36918 ft | 535 kts | 125° |
| 2026-05-04 15:05 | 25.59697 | 39.24168 | 36921 ft | 534 kts | 125° |
| 2026-05-04 15:06 | 25.56219 | 39.31464 | 36928 ft | 534 kts | 125° |
| 2026-05-04 15:07 | 25.50964 | 39.42468 | 36937 ft | 534 kts | 125° |
| 2026-05-04 15:07 | 25.47499 | 39.49708 | 36943 ft | 534 kts | 125° |
| 2026-05-04 15:08 | 25.43990 | 39.57027 | 36946 ft | 534 kts | 125° |
| 2026-05-04 15:08 | 25.40517 | 39.64260 | 36951 ft | 534 kts | 125° |
| 2026-05-04 15:09 | 25.37013 | 39.71545 | 36958 ft | 534 kts | 125° |
| 2026-05-04 15:09 | 25.33492 | 39.78855 | 36964 ft | 534 kts | 125° |
| 2026-05-04 15:10 | 25.28195 | 39.89829 | 36957 ft | 534 kts | 125° |
| 2026-05-04 15:11 | 25.22931 | 40.00709 | 36953 ft | 534 kts | 125° |
| 2026-05-04 15:11 | 25.19407 | 40.07980 | 36945 ft | 534 kts | 125° |
| 2026-05-04 15:12 | 25.15879 | 40.15246 | 36941 ft | 534 kts | 125° |
| 2026-05-04 15:12 | 25.12361 | 40.22480 | 36930 ft | 533 kts | 126° |
| 2026-05-04 15:13 | 25.08874 | 40.29642 | 36920 ft | 532 kts | 126° |
| 2026-05-04 15:13 | 25.05321 | 40.36925 | 36914 ft | 531 kts | 126° |
| 2026-05-04 15:14 | 25.01825 | 40.44080 | 36908 ft | 531 kts | 126° |
| 2026-05-04 15:14 | 24.98284 | 40.51315 | 36902 ft | 530 kts | 126° |
| 2026-05-04 15:15 | 24.94728 | 40.58568 | 36898 ft | 530 kts | 126° |
| 2026-05-04 15:15 | 24.91185 | 40.65786 | 36898 ft | 530 kts | 126° |
| 2026-05-04 15:16 | 24.85874 | 40.76583 | 36890 ft | 529 kts | 126° |
| 2026-05-04 15:17 | 24.80609 | 40.87262 | 36891 ft | 529 kts | 126° |
| 2026-05-04 15:17 | 24.75315 | 40.97974 | 36887 ft | 528 kts | 126° |
| 2026-05-04 15:18 | 24.71779 | 41.05116 | 36896 ft | 527 kts | 126° |
| 2026-05-04 15:19 | 24.66461 | 41.15835 | 36897 ft | 526 kts | 126° |
| 2026-05-04 15:19 | 24.61193 | 41.26430 | 36905 ft | 525 kts | 126° |
| 2026-05-04 15:20 | 24.57682 | 41.33479 | 36909 ft | 524 kts | 126° |
| 2026-05-04 15:20 | 24.54190 | 41.40477 | 36917 ft | 524 kts | 126° |
| 2026-05-04 15:21 | 24.51268 | 41.46324 | 36913 ft | 523 kts | 126° |
| 2026-05-04 15:22 | 24.46004 | 41.56837 | 36918 ft | 523 kts | 125° |
| 2026-05-04 15:22 | 24.40727 | 41.67346 | 36917 ft | 523 kts | 126° |
| 2026-05-04 15:23 | 24.37200 | 41.74355 | 36922 ft | 523 kts | 125° |
| 2026-05-04 15:23 | 24.33901 | 41.81549 | 36925 ft | 529 kts | 119° |
| 2026-05-04 15:24 | 24.29212 | 41.97255 | 36928 ft | 536 kts | 111° |
| 2026-05-04 15:25 | 24.27147 | 42.05207 | 36925 ft | 535 kts | 111° |
| 2026-05-04 15:26 | 24.24009 | 42.17137 | 36924 ft | 534 kts | 111° |
| 2026-05-04 15:26 | 24.20888 | 42.28917 | 36939 ft | 533 kts | 111° |
| 2026-05-04 15:27 | 24.17769 | 42.40645 | 36938 ft | 532 kts | 111° |
| 2026-05-04 15:28 | 24.14646 | 42.52345 | 36940 ft | 532 kts | 111° |
| 2026-05-04 15:29 | 24.11472 | 42.64198 | 36945 ft | 532 kts | 111° |
| 2026-05-04 15:30 | 24.04065 | 42.91676 | 36950 ft | 533 kts | 111° |
| 2026-05-04 15:31 | 24.00891 | 43.03457 | 36948 ft | 533 kts | 111° |
| 2026-05-04 15:32 | 23.95579 | 43.22994 | 36946 ft | 532 kts | 111° |
| 2026-05-04 15:34 | 23.90257 | 43.42445 | 36951 ft | 532 kts | 111° |
| 2026-05-04 15:34 | 23.87041 | 43.54148 | 36938 ft | 532 kts | 111° |
| 2026-05-04 15:35 | 23.83841 | 43.65745 | 36926 ft | 531 kts | 111° |
| 2026-05-04 15:36 | 23.80599 | 43.77438 | 36913 ft | 531 kts | 111° |
| 2026-05-04 15:36 | 23.78523 | 43.85246 | 36912 ft | 533 kts | 108° |
| 2026-05-04 15:37 | 23.77136 | 43.93306 | 36903 ft | 537 kts | 101° |
| 2026-05-04 15:37 | 23.76453 | 44.01582 | 36902 ft | 538 kts | 97° |
| 2026-05-04 15:38 | 23.75874 | 44.09799 | 36894 ft | 538 kts | 98° |
| 2026-05-04 15:38 | 23.75273 | 44.18027 | 36896 ft | 538 kts | 98° |
| 2026-05-04 15:39 | 23.74658 | 44.26200 | 36898 ft | 537 kts | 98° |
| 2026-05-04 15:40 | 23.73727 | 44.38415 | 36898 ft | 537 kts | 98° |
| 2026-05-04 15:40 | 23.73091 | 44.46677 | 36901 ft | 536 kts | 98° |
| 2026-05-04 15:41 | 23.72460 | 44.54828 | 36900 ft | 535 kts | 98° |
| 2026-05-04 15:41 | 23.71824 | 44.62963 | 36900 ft | 535 kts | 98° |
| 2026-05-04 15:42 | 23.71186 | 44.71053 | 36898 ft | 534 kts | 98° |
| 2026-05-04 15:42 | 23.70537 | 44.79209 | 36897 ft | 533 kts | 98° |
| 2026-05-04 15:43 | 23.69888 | 44.87318 | 36895 ft | 533 kts | 98° |
| 2026-05-04 15:43 | 23.69243 | 44.95455 | 36894 ft | 533 kts | 98° |
| 2026-05-04 15:44 | 23.68595 | 45.03534 | 36885 ft | 533 kts | 98° |
| 2026-05-04 15:44 | 23.67940 | 45.11558 | 36884 ft | 532 kts | 98° |
| 2026-05-04 15:45 | 23.67275 | 45.19618 | 36882 ft | 532 kts | 98° |
| 2026-05-04 15:45 | 23.66619 | 45.27687 | 36875 ft | 532 kts | 98° |
| 2026-05-04 15:46 | 23.65959 | 45.35741 | 36872 ft | 531 kts | 98° |
| 2026-05-04 15:46 | 23.65289 | 45.43778 | 36870 ft | 531 kts | 98° |
| 2026-05-04 15:47 | 23.64610 | 45.51812 | 36866 ft | 531 kts | 98° |
| 2026-05-04 15:47 | 23.63931 | 45.59796 | 36862 ft | 530 kts | 98° |
| 2026-05-04 15:48 | 23.63255 | 45.67820 | 36858 ft | 530 kts | 98° |
| 2026-05-04 15:48 | 23.62239 | 45.79850 | 36859 ft | 529 kts | 98° |
| 2026-05-04 15:49 | 23.61555 | 45.87797 | 36858 ft | 529 kts | 98° |
| 2026-05-04 15:49 | 23.61206 | 45.91814 | 36979 ft | 532 kts | 98° |
| 2026-05-04 15:49 | 23.60857 | 45.95835 | 37383 ft | 530 kts | 98° |
| 2026-05-04 15:50 | 23.60509 | 45.99852 | 37839 ft | 527 kts | 98° |
| 2026-05-04 15:50 | 23.60162 | 46.03827 | 38241 ft | 525 kts | 98° |
| 2026-05-04 15:50 | 23.59816 | 46.07781 | 38585 ft | 523 kts | 98° |
| 2026-05-04 15:50 | 23.59464 | 46.11763 | 38818 ft | 523 kts | 98° |
| 2026-05-04 15:51 | 23.58765 | 46.19647 | 38859 ft | 521 kts | 99° |
| 2026-05-04 15:51 | 23.58063 | 46.27512 | 38876 ft | 519 kts | 98° |
| 2026-05-04 15:52 | 23.57359 | 46.35361 | 38874 ft | 518 kts | 99° |
| 2026-05-04 15:52 | 23.56653 | 46.43153 | 38875 ft | 518 kts | 99° |
| 2026-05-04 15:53 | 23.55941 | 46.50983 | 38876 ft | 518 kts | 99° |
| 2026-05-04 15:53 | 23.55626 | 46.54461 | 38872 ft | 518 kts | 99° |
| 2026-05-04 15:54 | 23.54925 | 46.62245 | 38864 ft | 518 kts | 99° |
| 2026-05-04 15:54 | 23.54213 | 46.70066 | 38860 ft | 518 kts | 98° |
| 2026-05-04 15:55 | 23.53498 | 46.77840 | 38855 ft | 518 kts | 98° |
| 2026-05-04 15:55 | 23.52774 | 46.85652 | 38848 ft | 517 kts | 98° |
| 2026-05-04 15:56 | 23.52043 | 46.93497 | 38840 ft | 517 kts | 98° |
| 2026-05-04 15:56 | 23.51310 | 47.01322 | 38833 ft | 517 kts | 98° |
| 2026-05-04 15:57 | 23.50574 | 47.09128 | 38834 ft | 517 kts | 99° |
| 2026-05-04 15:57 | 23.49831 | 47.16974 | 38829 ft | 517 kts | 99° |
| 2026-05-04 15:58 | 23.49084 | 47.24803 | 38829 ft | 517 kts | 99° |
| 2026-05-04 15:58 | 23.48337 | 47.32579 | 38821 ft | 516 kts | 99° |
| 2026-05-04 15:59 | 23.47582 | 47.40389 | 38820 ft | 516 kts | 99° |
| 2026-05-04 15:59 | 23.46815 | 47.48261 | 38814 ft | 516 kts | 99° |
| 2026-05-04 16:00 | 23.46062 | 47.56053 | 38811 ft | 516 kts | 98° |
| 2026-05-04 16:00 | 23.45307 | 47.63892 | 38809 ft | 517 kts | 99° |
| 2026-05-04 16:01 | 23.44532 | 47.71822 | 38808 ft | 517 kts | 99° |
| 2026-05-04 16:01 | 23.43757 | 47.79681 | 38796 ft | 517 kts | 99° |
| 2026-05-04 16:02 | 23.42987 | 47.87432 | 38795 ft | 517 kts | 99° |
| 2026-05-04 16:03 | 23.41817 | 47.99133 | 38788 ft | 517 kts | 99° |
| 2026-05-04 16:03 | 23.41031 | 48.06932 | 38790 ft | 517 kts | 99° |
| 2026-05-04 16:04 | 23.40241 | 48.14729 | 38782 ft | 517 kts | 99° |
| 2026-05-04 16:04 | 23.39038 | 48.26517 | 38774 ft | 517 kts | 99° |
| 2026-05-04 16:05 | 23.38282 | 48.34339 | 38776 ft | 518 kts | 96° |
| 2026-05-04 16:06 | 23.37777 | 48.46214 | 38774 ft | 519 kts | 94° |
| 2026-05-04 16:07 | 23.37149 | 48.62044 | 38774 ft | 518 kts | 95° |
| 2026-05-04 16:08 | 23.36486 | 48.77840 | 38775 ft | 518 kts | 95° |
| 2026-05-04 16:09 | 23.35628 | 48.97542 | 38772 ft | 517 kts | 95° |
| 2026-05-04 16:10 | 23.34324 | 49.13197 | 38765 ft | 515 kts | 101° |
| 2026-05-04 16:11 | 23.32095 | 49.28592 | 38767 ft | 514 kts | 101° |
| 2026-05-04 16:12 | 23.28906 | 49.50569 | 38770 ft | 514 kts | 101° |
| 2026-05-04 16:13 | 23.26646 | 49.66034 | 38776 ft | 514 kts | 101° |
| 2026-05-04 16:14 | 23.24389 | 49.81381 | 38779 ft | 514 kts | 101° |
| 2026-05-04 16:16 | 23.21538 | 50.00605 | 38780 ft | 514 kts | 101° |
| 2026-05-04 16:17 | 23.18661 | 50.19841 | 38781 ft | 514 kts | 101° |
| 2026-05-04 16:18 | 23.16337 | 50.35265 | 38782 ft | 514 kts | 101° |
| 2026-05-04 16:19 | 23.13396 | 50.54628 | 38781 ft | 514 kts | 101° |
| 2026-05-04 16:20 | 23.10424 | 50.74032 | 38777 ft | 514 kts | 101° |
| 2026-05-04 16:22 | 23.07456 | 50.93257 | 38780 ft | 514 kts | 101° |
| 2026-05-04 16:23 | 23.03865 | 51.16295 | 38777 ft | 514 kts | 101° |
| 2026-05-04 16:25 | 23.00219 | 51.39496 | 38790 ft | 516 kts | 102° |
| 2026-05-04 16:26 | 22.95887 | 51.66663 | 38779 ft | 517 kts | 101° |
| 2026-05-04 16:28 | 22.92792 | 51.85923 | 38783 ft | 516 kts | 101° |
| 2026-05-04 16:29 | 22.88407 | 52.12951 | 38785 ft | 516 kts | 101° |
| 2026-05-04 16:31 | 22.85236 | 52.32292 | 38783 ft | 516 kts | 101° |
| 2026-05-04 16:32 | 22.81687 | 52.55476 | 38778 ft | 517 kts | 98° |
| 2026-05-04 16:33 | 22.79845 | 52.70953 | 38782 ft | 517 kts | 98° |
| 2026-05-04 16:34 | 22.78424 | 52.82656 | 38779 ft | 517 kts | 98° |
| 2026-05-04 16:35 | 22.75565 | 53.05951 | 38777 ft | 517 kts | 98° |
| 2026-05-04 16:36 | 22.74116 | 53.17638 | 38775 ft | 517 kts | 98° |
| 2026-05-04 16:37 | 22.72660 | 53.29317 | 38773 ft | 517 kts | 98° |
| 2026-05-04 16:38 | 22.70719 | 53.44773 | 38771 ft | 517 kts | 98° |
| 2026-05-04 16:39 | 22.68271 | 53.64090 | 38771 ft | 516 kts | 98° |
| 2026-05-04 16:40 | 22.66300 | 53.79497 | 38770 ft | 517 kts | 98° |
| 2026-05-04 16:41 | 22.63806 | 53.98808 | 38771 ft | 517 kts | 98° |
| 2026-05-04 16:43 | 22.61424 | 54.18056 | 38766 ft | 516 kts | 92° |
| 2026-05-04 16:43 | 22.61703 | 54.25814 | 38765 ft | 515 kts | 81° |
| 2026-05-04 16:43 | 22.62360 | 54.29624 | 38765 ft | 514 kts | 75° |
| 2026-05-04 16:44 | 22.67745 | 54.43876 | 38769 ft | 510 kts | 62° |
| 2026-05-04 16:45 | 22.70836 | 54.50760 | 38766 ft | 511 kts | 62° |
| 2026-05-04 16:46 | 22.78515 | 54.68161 | 38763 ft | 511 kts | 62° |
| 2026-05-04 16:47 | 22.84637 | 54.82112 | 38767 ft | 511 kts | 62° |
| 2026-05-04 16:48 | 22.90726 | 54.96031 | 38764 ft | 512 kts | 62° |
| 2026-05-04 16:49 | 22.96823 | 55.10023 | 38770 ft | 512 kts | 62° |
| 2026-05-04 16:50 | 23.04913 | 55.22439 | 38096 ft | 494 kts | 34° |
| 2026-05-04 16:51 | 23.10798 | 55.26258 | 36323 ft | 494 kts | 18° |
| 2026-05-04 16:51 | 23.14025 | 55.27463 | 35550 ft | 493 kts | 12° |
| 2026-05-04 16:51 | 23.20690 | 55.29408 | 34133 ft | 496 kts | 11° |
| 2026-05-04 16:52 | 23.27424 | 55.31347 | 32539 ft | 501 kts | 11° |
| 2026-05-04 16:52 | 23.30796 | 55.32332 | 31695 ft | 504 kts | 11° |
| 2026-05-04 16:53 | 23.37660 | 55.34353 | 29980 ft | 510 kts | 11° |
| 2026-05-04 16:53 | 23.47988 | 55.37410 | 27691 ft | 504 kts | 12° |
| 2026-05-04 16:54 | 23.51354 | 55.38408 | 27202 ft | 497 kts | 12° |
| 2026-05-04 16:55 | 23.64491 | 55.42284 | 24988 ft | 479 kts | 12° |
| 2026-05-04 16:55 | 23.70916 | 55.44189 | 23897 ft | 471 kts | 13° |
| 2026-05-04 16:56 | 23.77176 | 55.46061 | 22912 ft | 458 kts | 12° |
| 2026-05-04 16:56 | 23.86246 | 55.48762 | 21390 ft | 439 kts | 12° |
| 2026-05-04 16:57 | 23.89137 | 55.49618 | 20845 ft | 434 kts | 12° |
| 2026-05-04 16:57 | 23.94935 | 55.51339 | 19769 ft | 426 kts | 13° |
| 2026-05-04 16:58 | 24.03447 | 55.53871 | 18183 ft | 415 kts | 13° |
| 2026-05-04 16:58 | 24.06283 | 55.54717 | 17612 ft | 411 kts | 13° |
| 2026-05-04 16:59 | 24.11775 | 55.56363 | 16481 ft | 404 kts | 13° |
| 2026-05-04 17:00 | 24.22536 | 55.58483 | 14274 ft | 383 kts | 341° |
| 2026-05-04 17:00 | 24.27537 | 55.52387 | 12794 ft | 372 kts | 285° |
| 2026-05-04 17:01 | 24.28416 | 55.47837 | 12122 ft | 360 kts | 284° |
| 2026-05-04 17:01 | 24.29450 | 55.42553 | 11409 ft | 346 kts | 284° |
| 2026-05-04 17:02 | 24.30411 | 55.37571 | 11150 ft | 319 kts | 285° |
| 2026-05-04 17:02 | 24.31619 | 55.33088 | 10725 ft | 300 kts | 291° |
| 2026-05-04 17:03 | 24.32283 | 55.30940 | 10451 ft | 295 kts | 291° |
| 2026-05-04 17:03 | 24.32942 | 55.28817 | 10151 ft | 290 kts | 291° |
| 2026-05-04 17:03 | 24.34219 | 55.24678 | 9549 ft | 282 kts | 290° |
| 2026-05-04 17:04 | 24.35448 | 55.20677 | 8943 ft | 274 kts | 290° |
| 2026-05-04 17:04 | 24.36653 | 55.16747 | 8250 ft | 270 kts | 290° |
| 2026-05-04 17:05 | 24.37862 | 55.12790 | 7444 ft | 273 kts | 290° |
| 2026-05-04 17:05 | 24.39054 | 55.08879 | 7041 ft | 257 kts | 290° |
| 2026-05-04 17:06 | 24.40158 | 55.05267 | 6632 ft | 247 kts | 290° |
| 2026-05-04 17:06 | 24.40708 | 55.03475 | 6340 ft | 246 kts | 290° |
| 2026-05-04 17:07 | 24.41019 | 54.99801 | 5683 ft | 253 kts | 247° |
| 2026-05-04 17:07 | 24.40328 | 54.98733 | 5630 ft | 256 kts | 226° |
| 2026-05-04 17:07 | 24.38501 | 54.97037 | 5682 ft | 259 kts | 223° |
| 2026-05-04 17:07 | 24.37027 | 54.95879 | 5683 ft | 264 kts | 205° |
| 2026-05-04 17:08 | 24.35170 | 54.95666 | 5694 ft | 272 kts | 168° |
| 2026-05-04 17:08 | 24.32318 | 54.98316 | 5766 ft | 276 kts | 125° |
| 2026-05-04 17:08 | 24.31206 | 55.00026 | 5772 ft | 277 kts | 125° |
| 2026-05-04 17:09 | 24.30071 | 55.01735 | 5620 ft | 278 kts | 126° |
| 2026-05-04 17:09 | 24.28891 | 55.03446 | 5300 ft | 278 kts | 127° |
| 2026-05-04 17:09 | 24.27696 | 55.05135 | 5011 ft | 277 kts | 127° |
| 2026-05-04 17:10 | 24.24985 | 55.07862 | 4667 ft | 259 kts | 169° |
| 2026-05-04 17:10 | 24.20711 | 55.05282 | 4245 ft | 240 kts | 228° |
| 2026-05-04 17:11 | 24.19604 | 55.03875 | 3981 ft | 233 kts | 250° |
| 2026-05-04 17:11 | 24.19409 | 55.02166 | 3976 ft | 227 kts | 285° |
| 2026-05-04 17:11 | 24.20444 | 54.98908 | 3987 ft | 226 kts | 289° |
| 2026-05-04 17:12 | 24.20939 | 54.97304 | 3994 ft | 216 kts | 294° |
| 2026-05-04 17:12 | 24.22502 | 54.94476 | 3841 ft | 218 kts | 308° |
| 2026-05-04 17:13 | 24.25333 | 54.90586 | 3770 ft | 217 kts | 309° |
| 2026-05-04 17:14 | 24.28088 | 54.86712 | 3130 ft | 205 kts | 308° |
| 2026-05-04 17:14 | 24.28942 | 54.85497 | 2981 ft | 194 kts | 308° |
| 2026-05-04 17:14 | 24.30433 | 54.83375 | 2938 ft | 164 kts | 308° |
| 2026-05-04 17:15 | 24.31144 | 54.82365 | 2960 ft | 163 kts | 308° |
| 2026-05-04 17:15 | 24.32529 | 54.80396 | 2941 ft | 163 kts | 308° |
| 2026-05-04 17:16 | 24.33926 | 54.78408 | 2548 ft | 161 kts | 308° |
| 2026-05-04 17:16 | 24.35990 | 54.75480 | 1939 ft | 160 kts | 308° |
| 2026-05-04 17:17 | 24.36671 | 54.74512 | 1747 ft | 159 kts | 310° |
| 2026-05-04 17:17 | 24.38708 | 54.71607 | 1108 ft | 156 kts | 308° |
| 2026-05-04 17:18 | 24.39375 | 54.70655 | 948 ft | 156 kts | 308° |
| 2026-05-04 17:18 | 24.40714 | 54.68732 | 693 ft | 156 kts | 309° |
| 2026-05-04 17:19 | 24.42056 | 54.66873 | 206 ft | 151 kts | 308° |
| 2026-05-04 17:19 | 24.43106 | 54.65400 | 89 ft | 63 kts | 308° |
| 2026-05-04 17:20 | 24.43396 | 54.64878 | 85 ft | 37 kts | 280° |
| 2026-05-04 17:20 | 24.43438 | 54.64450 | 87 ft | 17 kts | 244° |
| 2026-05-04 17:20 | 24.43343 | 54.64352 | 88 ft | 20 kts | 223° |
| 2026-05-04 17:21 | 24.43155 | 54.64257 | 88 ft | 0 kts | 217° |